sensor_id;sensor_type;location;lat;lon;timestamp;temperature;humidity
67777;DHT22;54576;52.020;5.536;2023-04-15T00:01:05;6.40;69.00
67777;DHT22;54576;52.020;5.536;2023-04-15T00:03:30;6.30;69.00
67777;DHT22;54576;52.020;5.536;2023-04-15T00:05:57;6.30;69.20
67777;DHT22;54576;52.020;5.536;2023-04-15T00:08:25;6.30;69.30
67777;DHT22;54576;52.020;5.536;2023-04-15T00:10:51;6.30;69.20
67777;DHT22;54576;52.020;5.536;2023-04-15T00:13:17;6.30;69.10
67777;DHT22;54576;52.020;5.536;2023-04-15T00:15:42;6.30;69.10
67777;DHT22;54576;52.020;5.536;2023-04-15T00:18:09;6.30;69.50
67777;DHT22;54576;52.020;5.536;2023-04-15T00:20:34;6.20;69.40
67777;DHT22;54576;52.020;5.536;2023-04-15T00:23:04;6.20;69.60
67777;DHT22;54576;52.020;5.536;2023-04-15T00:25:30;6.20;69.80
67777;DHT22;54576;52.020;5.536;2023-04-15T00:27:55;6.10;69.70
67777;DHT22;54576;52.020;5.536;2023-04-15T00:30:21;6.10;69.70
67777;DHT22;54576;52.020;5.536;2023-04-15T00:32:48;6.10;69.80
67777;DHT22;54576;52.020;5.536;2023-04-15T00:35:13;6.10;70.00
67777;DHT22;54576;52.020;5.536;2023-04-15T00:37:39;6.00;70.10
67777;DHT22;54576;52.020;5.536;2023-04-15T00:40:08;6.00;69.90
67777;DHT22;54576;52.020;5.536;2023-04-15T00:42:37;6.00;70.20
67777;DHT22;54576;52.020;5.536;2023-04-15T00:45:03;6.00;70.00
67777;DHT22;54576;52.020;5.536;2023-04-15T00:47:30;6.00;70.00
67777;DHT22;54576;52.020;5.536;2023-04-15T00:49:57;5.90;69.80
67777;DHT22;54576;52.020;5.536;2023-04-15T00:52:23;5.90;69.70
67777;DHT22;54576;52.020;5.536;2023-04-15T00:54:49;5.90;69.90
67777;DHT22;54576;52.020;5.536;2023-04-15T00:57:20;5.90;70.10
67777;DHT22;54576;52.020;5.536;2023-04-15T00:59:50;5.90;70.10
67777;DHT22;54576;52.020;5.536;2023-04-15T01:02:17;5.90;70.10
67777;DHT22;54576;52.020;5.536;2023-04-15T01:04:42;5.80;70.20
67777;DHT22;54576;52.020;5.536;2023-04-15T01:07:08;5.80;70.30
67777;DHT22;54576;52.020;5.536;2023-04-15T01:09:33;5.80;70.20
67777;DHT22;54576;52.020;5.536;2023-04-15T01:11:59;5.80;70.10
67777;DHT22;54576;52.020;5.536;2023-04-15T01:14:24;5.80;70.10
67777;DHT22;54576;52.020;5.536;2023-04-15T01:16:52;5.70;70.10
67777;DHT22;54576;52.020;5.536;2023-04-15T01:19:17;5.70;70.10
67777;DHT22;54576;52.020;5.536;2023-04-15T01:21:44;5.70;70.20
67777;DHT22;54576;52.020;5.536;2023-04-15T01:24:09;5.70;70.10
67777;DHT22;54576;52.020;5.536;2023-04-15T01:26:39;5.70;70.40
67777;DHT22;54576;52.020;5.536;2023-04-15T01:29:05;5.60;70.60
67777;DHT22;54576;52.020;5.536;2023-04-15T01:31:31;5.60;70.40
67777;DHT22;54576;52.020;5.536;2023-04-15T01:33:58;5.60;70.10
67777;DHT22;54576;52.020;5.536;2023-04-15T01:36:23;5.60;70.50
67777;DHT22;54576;52.020;5.536;2023-04-15T01:38:50;5.60;70.50
67777;DHT22;54576;52.020;5.536;2023-04-15T01:41:15;5.60;70.20
67777;DHT22;54576;52.020;5.536;2023-04-15T01:43:41;5.60;70.60
67777;DHT22;54576;52.020;5.536;2023-04-15T01:46:07;5.60;71.10
67777;DHT22;54576;52.020;5.536;2023-04-15T01:48:32;5.60;70.50
67777;DHT22;54576;52.020;5.536;2023-04-15T01:50:58;5.70;70.40
67777;DHT22;54576;52.020;5.536;2023-04-15T01:53:24;5.70;70.40
67777;DHT22;54576;52.020;5.536;2023-04-15T01:55:50;5.70;70.20
67777;DHT22;54576;52.020;5.536;2023-04-15T01:58:19;5.70;70.20
67777;DHT22;54576;52.020;5.536;2023-04-15T02:00:46;5.70;71.20
67777;DHT22;54576;52.020;5.536;2023-04-15T02:03:12;5.70;70.40
67777;DHT22;54576;52.020;5.536;2023-04-15T02:05:37;5.70;70.70
67777;DHT22;54576;52.020;5.536;2023-04-15T02:08:03;5.80;70.30
67777;DHT22;54576;52.020;5.536;2023-04-15T02:10:31;5.70;70.20
67777;DHT22;54576;52.020;5.536;2023-04-15T02:12:56;5.60;70.20
67777;DHT22;54576;52.020;5.536;2023-04-15T02:15:22;5.50;70.60
67777;DHT22;54576;52.020;5.536;2023-04-15T02:17:48;5.40;71.80
67777;DHT22;54576;52.020;5.536;2023-04-15T02:20:16;5.40;71.10
67777;DHT22;54576;52.020;5.536;2023-04-15T02:22:42;5.40;71.20
67777;DHT22;54576;52.020;5.536;2023-04-15T02:25:08;5.40;71.70
67777;DHT22;54576;52.020;5.536;2023-04-15T02:27:35;5.50;71.20
67777;DHT22;54576;52.020;5.536;2023-04-15T02:30:01;5.60;70.90
67777;DHT22;54576;52.020;5.536;2023-04-15T02:32:27;5.50;70.90
67777;DHT22;54576;52.020;5.536;2023-04-15T02:34:53;5.60;71.40
67777;DHT22;54576;52.020;5.536;2023-04-15T02:37:19;5.80;71.80
67777;DHT22;54576;52.020;5.536;2023-04-15T02:39:45;5.80;70.60
67777;DHT22;54576;52.020;5.536;2023-04-15T02:42:11;5.80;70.20
67777;DHT22;54576;52.020;5.536;2023-04-15T02:44:37;5.80;70.40
67777;DHT22;54576;52.020;5.536;2023-04-15T02:47:03;5.80;70.70
67777;DHT22;54576;52.020;5.536;2023-04-15T02:49:31;5.80;70.30
67777;DHT22;54576;52.020;5.536;2023-04-15T02:51:57;5.70;70.20
67777;DHT22;54576;52.020;5.536;2023-04-15T02:54:25;5.60;70.50
67777;DHT22;54576;52.020;5.536;2023-04-15T02:56:53;5.60;70.70
67777;DHT22;54576;52.020;5.536;2023-04-15T02:59:20;5.50;70.90
67777;DHT22;54576;52.020;5.536;2023-04-15T03:01:46;5.40;70.80
67777;DHT22;54576;52.020;5.536;2023-04-15T03:04:14;5.30;71.20
67777;DHT22;54576;52.020;5.536;2023-04-15T03:06:40;5.30;71.00
67777;DHT22;54576;52.020;5.536;2023-04-15T03:09:05;5.20;71.30
67777;DHT22;54576;52.020;5.536;2023-04-15T03:11:31;5.20;71.80
67777;DHT22;54576;52.020;5.536;2023-04-15T03:13:57;5.30;72.40
67777;DHT22;54576;52.020;5.536;2023-04-15T03:16:23;5.40;72.80
67777;DHT22;54576;52.020;5.536;2023-04-15T03:18:50;5.50;71.60
67777;DHT22;54576;52.020;5.536;2023-04-15T03:21:15;5.60;71.30
67777;DHT22;54576;52.020;5.536;2023-04-15T03:23:41;5.70;71.50
67777;DHT22;54576;52.020;5.536;2023-04-15T03:26:06;5.80;72.70
67777;DHT22;54576;52.020;5.536;2023-04-15T03:28:32;5.90;70.60
67777;DHT22;54576;52.020;5.536;2023-04-15T03:30:58;6.00;70.40
67777;DHT22;54576;52.020;5.536;2023-04-15T03:33:24;6.10;70.30
67777;DHT22;54576;52.020;5.536;2023-04-15T03:35:50;6.10;70.40
67777;DHT22;54576;52.020;5.536;2023-04-15T03:38:16;5.90;70.20
67777;DHT22;54576;52.020;5.536;2023-04-15T03:40:42;5.70;70.40
67777;DHT22;54576;52.020;5.536;2023-04-15T03:43:08;5.60;70.40
67777;DHT22;54576;52.020;5.536;2023-04-15T03:45:33;5.40;71.30
67777;DHT22;54576;52.020;5.536;2023-04-15T03:47:59;5.10;71.40
67777;DHT22;54576;52.020;5.536;2023-04-15T03:50:25;5.00;71.40
67777;DHT22;54576;52.020;5.536;2023-04-15T03:52:50;4.80;72.00
67777;DHT22;54576;52.020;5.536;2023-04-15T03:55:16;4.80;72.70
67777;DHT22;54576;52.020;5.536;2023-04-15T03:57:42;4.70;72.90
67777;DHT22;54576;52.020;5.536;2023-04-15T04:00:08;4.60;72.70
67777;DHT22;54576;52.020;5.536;2023-04-15T04:02:35;4.60;72.60
67777;DHT22;54576;52.020;5.536;2023-04-15T04:05:00;4.50;72.80
67777;DHT22;54576;52.020;5.536;2023-04-15T04:07:26;4.50;73.20
67777;DHT22;54576;52.020;5.536;2023-04-15T04:09:52;4.60;73.10
67777;DHT22;54576;52.020;5.536;2023-04-15T04:12:17;4.60;73.20
67777;DHT22;54576;52.020;5.536;2023-04-15T04:14:43;4.60;73.00
67777;DHT22;54576;52.020;5.536;2023-04-15T04:17:08;4.60;72.70
67777;DHT22;54576;52.020;5.536;2023-04-15T04:19:34;4.70;72.80
67777;DHT22;54576;52.020;5.536;2023-04-15T04:22:00;4.70;72.70
67777;DHT22;54576;52.020;5.536;2023-04-15T04:24:26;4.70;72.90
67777;DHT22;54576;52.020;5.536;2023-04-15T04:26:54;4.80;73.00
67777;DHT22;54576;52.020;5.536;2023-04-15T04:29:21;4.70;72.50
67777;DHT22;54576;52.020;5.536;2023-04-15T04:31:47;4.70;73.00
67777;DHT22;54576;52.020;5.536;2023-04-15T04:34:13;4.60;72.80
67777;DHT22;54576;52.020;5.536;2023-04-15T04:36:38;4.50;73.00
67777;DHT22;54576;52.020;5.536;2023-04-15T04:39:04;4.40;72.80
67777;DHT22;54576;52.020;5.536;2023-04-15T04:41:30;4.50;86.60
67777;DHT22;54576;52.020;5.536;2023-04-15T04:43:56;4.30;73.70
67777;DHT22;54576;52.020;5.536;2023-04-15T04:46:22;4.40;94.90
67777;DHT22;54576;52.020;5.536;2023-04-15T04:48:48;4.20;75.50
67777;DHT22;54576;52.020;5.536;2023-04-15T04:51:13;4.20;74.80
67777;DHT22;54576;52.020;5.536;2023-04-15T04:53:39;4.20;74.00
67777;DHT22;54576;52.020;5.536;2023-04-15T04:56:05;4.20;73.70
67777;DHT22;54576;52.020;5.536;2023-04-15T04:58:30;4.10;73.80
67777;DHT22;54576;52.020;5.536;2023-04-15T05:00:56;4.20;90.90
67777;DHT22;54576;52.020;5.536;2023-04-15T05:03:22;4.10;79.10
67777;DHT22;54576;52.020;5.536;2023-04-15T05:05:48;4.00;74.00
67777;DHT22;54576;52.020;5.536;2023-04-15T05:08:15;4.00;74.10
67777;DHT22;54576;52.020;5.536;2023-04-15T05:10:40;3.90;74.30
67777;DHT22;54576;52.020;5.536;2023-04-15T05:13:06;3.90;74.00
67777;DHT22;54576;52.020;5.536;2023-04-15T05:15:34;3.90;74.80
67777;DHT22;54576;52.020;5.536;2023-04-15T05:18:01;4.00;74.20
67777;DHT22;54576;52.020;5.536;2023-04-15T05:20:27;4.10;74.80
67777;DHT22;54576;52.020;5.536;2023-04-15T05:22:52;4.60;74.60
67777;DHT22;54576;52.020;5.536;2023-04-15T05:25:18;5.10;74.20
67777;DHT22;54576;52.020;5.536;2023-04-15T05:27:43;5.40;73.20
67777;DHT22;54576;52.020;5.536;2023-04-15T05:30:09;5.70;72.70
67777;DHT22;54576;52.020;5.536;2023-04-15T05:32:35;6.20;72.00
67777;DHT22;54576;52.020;5.536;2023-04-15T05:35:01;6.50;70.90
67777;DHT22;54576;52.020;5.536;2023-04-15T05:37:27;6.90;70.60
67777;DHT22;54576;52.020;5.536;2023-04-15T05:39:53;7.10;70.10
67777;DHT22;54576;52.020;5.536;2023-04-15T05:42:18;7.30;69.90
67777;DHT22;54576;52.020;5.536;2023-04-15T05:44:44;7.60;69.70
67777;DHT22;54576;52.020;5.536;2023-04-15T05:47:10;7.80;69.70
67777;DHT22;54576;52.020;5.536;2023-04-15T05:49:35;8.00;69.20
67777;DHT22;54576;52.020;5.536;2023-04-15T05:52:01;8.20;69.10
67777;DHT22;54576;52.020;5.536;2023-04-15T05:54:27;8.20;71.00
67777;DHT22;54576;52.020;5.536;2023-04-15T05:56:53;8.30;70.00
67777;DHT22;54576;52.020;5.536;2023-04-15T05:59:19;8.20;70.20
67777;DHT22;54576;52.020;5.536;2023-04-15T06:01:44;8.10;72.70
67777;DHT22;54576;52.020;5.536;2023-04-15T06:04:10;8.10;70.90
67777;DHT22;54576;52.020;5.536;2023-04-15T06:06:36;8.10;70.50
67777;DHT22;54576;52.020;5.536;2023-04-15T06:09:02;8.10;71.00
67777;DHT22;54576;52.020;5.536;2023-04-15T06:11:31;8.20;70.80
67777;DHT22;54576;52.020;5.536;2023-04-15T06:13:57;8.30;70.90
67777;DHT22;54576;52.020;5.536;2023-04-15T06:16:22;8.40;71.60
67777;DHT22;54576;52.020;5.536;2023-04-15T06:18:48;8.50;70.90
67777;DHT22;54576;52.020;5.536;2023-04-15T06:21:20;8.70;71.70
67777;DHT22;54576;52.020;5.536;2023-04-15T06:23:46;8.90;70.80
67777;DHT22;54576;52.020;5.536;2023-04-15T06:26:11;9.10;70.80
67777;DHT22;54576;52.020;5.536;2023-04-15T06:28:39;9.30;70.40
67777;DHT22;54576;52.020;5.536;2023-04-15T06:35:57;9.80;99.90
67777;DHT22;54576;52.020;5.536;2023-04-15T06:38:22;10.00;95.70
67777;DHT22;54576;52.020;5.536;2023-04-15T06:40:48;10.30;96.10
67777;DHT22;54576;52.020;5.536;2023-04-15T06:43:13;10.30;71.00
67777;DHT22;54576;52.020;5.536;2023-04-15T06:45:39;10.60;74.00
67777;DHT22;54576;52.020;5.536;2023-04-15T06:48:05;10.80;70.60
67777;DHT22;54576;52.020;5.536;2023-04-15T06:50:31;11.10;70.40
67777;DHT22;54576;52.020;5.536;2023-04-15T06:52:57;11.20;72.60
67777;DHT22;54576;52.020;5.536;2023-04-15T06:55:22;11.20;69.40
67777;DHT22;54576;52.020;5.536;2023-04-15T06:57:48;11.40;69.80
67777;DHT22;54576;52.020;5.536;2023-04-15T07:00:15;11.60;70.70
67777;DHT22;54576;52.020;5.536;2023-04-15T07:02:40;11.70;69.90
67777;DHT22;54576;52.020;5.536;2023-04-15T07:05:09;11.50;70.20
67777;DHT22;54576;52.020;5.536;2023-04-15T07:07:35;11.30;69.70
67777;DHT22;54576;52.020;5.536;2023-04-15T07:10:01;11.10;70.80
67777;DHT22;54576;52.020;5.536;2023-04-15T07:12:27;10.80;70.40
67777;DHT22;54576;52.020;5.536;2023-04-15T07:14:53;10.70;70.90
67777;DHT22;54576;52.020;5.536;2023-04-15T07:17:18;10.40;70.70
67777;DHT22;54576;52.020;5.536;2023-04-15T07:19:46;10.20;70.00
67777;DHT22;54576;52.020;5.536;2023-04-15T07:22:12;10.10;71.70
67777;DHT22;54576;52.020;5.536;2023-04-15T07:24:40;10.10;70.40
67777;DHT22;54576;52.020;5.536;2023-04-15T07:27:06;10.10;71.30
67777;DHT22;54576;52.020;5.536;2023-04-15T07:29:32;10.20;73.10
67777;DHT22;54576;52.020;5.536;2023-04-15T07:31:58;10.20;70.20
67777;DHT22;54576;52.020;5.536;2023-04-15T07:34:23;10.30;69.40
67777;DHT22;54576;52.020;5.536;2023-04-15T07:36:49;10.30;69.10
67777;DHT22;54576;52.020;5.536;2023-04-15T07:39:16;10.30;69.70
67777;DHT22;54576;52.020;5.536;2023-04-15T07:41:42;10.50;69.50
67777;DHT22;54576;52.020;5.536;2023-04-15T07:44:08;10.60;68.70
67777;DHT22;54576;52.020;5.536;2023-04-15T07:46:34;10.60;69.40
67777;DHT22;54576;52.020;5.536;2023-04-15T07:48:59;10.60;68.60
67777;DHT22;54576;52.020;5.536;2023-04-15T07:51:28;10.50;68.60
67777;DHT22;54576;52.020;5.536;2023-04-15T07:53:54;10.60;69.60
67777;DHT22;54576;52.020;5.536;2023-04-15T07:56:20;10.70;69.00
67777;DHT22;54576;52.020;5.536;2023-04-15T07:58:46;10.70;69.20
67777;DHT22;54576;52.020;5.536;2023-04-15T08:01:12;10.70;68.80
67777;DHT22;54576;52.020;5.536;2023-04-15T08:03:38;10.70;68.50
67777;DHT22;54576;52.020;5.536;2023-04-15T08:06:04;10.70;67.80
67777;DHT22;54576;52.020;5.536;2023-04-15T08:08:29;10.80;68.20
67777;DHT22;54576;52.020;5.536;2023-04-15T08:10:57;10.90;68.00
67777;DHT22;54576;52.020;5.536;2023-04-15T08:13:22;10.90;68.20
67777;DHT22;54576;52.020;5.536;2023-04-15T08:18:37;11.00;68.00
67777;DHT22;54576;52.020;5.536;2023-04-15T08:21:02;11.00;68.00
67777;DHT22;54576;52.020;5.536;2023-04-15T08:23:28;11.00;68.50
67777;DHT22;54576;52.020;5.536;2023-04-15T08:25:54;11.00;68.20
67777;DHT22;54576;52.020;5.536;2023-04-15T08:28:19;11.00;68.10
67777;DHT22;54576;52.020;5.536;2023-04-15T08:30:45;11.00;68.30
67777;DHT22;54576;52.020;5.536;2023-04-15T08:33:11;10.90;67.80
67777;DHT22;54576;52.020;5.536;2023-04-15T08:35:39;11.00;68.30
67777;DHT22;54576;52.020;5.536;2023-04-15T08:38:05;11.10;68.00
67777;DHT22;54576;52.020;5.536;2023-04-15T08:40:44;11.00;68.20
67777;DHT22;54576;52.020;5.536;2023-04-15T08:43:23;11.00;68.60
67777;DHT22;54576;52.020;5.536;2023-04-15T08:45:51;11.10;68.00
67777;DHT22;54576;52.020;5.536;2023-04-15T08:48:18;11.20;68.30
67777;DHT22;54576;52.020;5.536;2023-04-15T08:50:44;11.20;67.90
67777;DHT22;54576;52.020;5.536;2023-04-15T08:53:14;11.30;68.30
67777;DHT22;54576;52.020;5.536;2023-04-15T08:55:50;11.40;67.90
67777;DHT22;54576;52.020;5.536;2023-04-15T08:58:16;11.60;68.20
67777;DHT22;54576;52.020;5.536;2023-04-15T09:00:43;11.60;67.40
67777;DHT22;54576;52.020;5.536;2023-04-15T09:03:09;11.70;67.10
67777;DHT22;54576;52.020;5.536;2023-04-15T09:05:35;11.70;67.10
67777;DHT22;54576;52.020;5.536;2023-04-15T09:08:02;11.80;67.30
67777;DHT22;54576;52.020;5.536;2023-04-15T09:10:28;11.90;67.30
67777;DHT22;54576;52.020;5.536;2023-04-15T09:12:54;12.00;66.60
67777;DHT22;54576;52.020;5.536;2023-04-15T09:15:20;12.00;91.80
67777;DHT22;54576;52.020;5.536;2023-04-15T09:17:48;11.80;67.20
67777;DHT22;54576;52.020;5.536;2023-04-15T09:20:15;11.90;67.40
67777;DHT22;54576;52.020;5.536;2023-04-15T09:22:42;12.00;90.20
67777;DHT22;54576;52.020;5.536;2023-04-15T09:27:59;12.00;66.80
67777;DHT22;54576;52.020;5.536;2023-04-15T09:30:27;12.10;67.00
67777;DHT22;54576;52.020;5.536;2023-04-15T09:32:58;12.20;67.00
67777;DHT22;54576;52.020;5.536;2023-04-15T09:35:25;12.30;66.90
67777;DHT22;54576;52.020;5.536;2023-04-15T09:37:52;12.20;66.80
67777;DHT22;54576;52.020;5.536;2023-04-15T09:40:47;12.20;66.90
67777;DHT22;54576;52.020;5.536;2023-04-15T09:43:13;12.30;66.90
67777;DHT22;54576;52.020;5.536;2023-04-15T09:45:50;12.30;67.50
67777;DHT22;54576;52.020;5.536;2023-04-15T09:48:21;12.40;91.10
67777;DHT22;54576;52.020;5.536;2023-04-15T09:50:48;12.40;66.70
67777;DHT22;54576;52.020;5.536;2023-04-15T09:53:21;12.40;66.40
67777;DHT22;54576;52.020;5.536;2023-04-15T09:58:18;12.70;65.60
67777;DHT22;54576;52.020;5.536;2023-04-15T10:00:46;12.70;66.10
67777;DHT22;54576;52.020;5.536;2023-04-15T10:03:28;12.80;66.30
67777;DHT22;54576;52.020;5.536;2023-04-15T10:05:56;12.90;67.30
67777;DHT22;54576;52.020;5.536;2023-04-15T10:08:26;13.10;66.20
67777;DHT22;54576;52.020;5.536;2023-04-15T10:10:52;13.10;65.10
67777;DHT22;54576;52.020;5.536;2023-04-15T10:13:22;13.10;65.30
67777;DHT22;54576;52.020;5.536;2023-04-15T10:15:57;13.20;64.70
67777;DHT22;54576;52.020;5.536;2023-04-15T10:18:25;13.20;63.00
67777;DHT22;54576;52.020;5.536;2023-04-15T10:20:51;13.20;63.90
67777;DHT22;54576;52.020;5.536;2023-04-15T10:23:17;13.10;63.40
67777;DHT22;54576;52.020;5.536;2023-04-15T10:25:44;13.10;64.00
67777;DHT22;54576;52.020;5.536;2023-04-15T10:28:10;13.00;63.00
67777;DHT22;54576;52.020;5.536;2023-04-15T10:30:37;13.00;64.00
67777;DHT22;54576;52.020;5.536;2023-04-15T10:33:03;13.00;64.10
67777;DHT22;54576;52.020;5.536;2023-04-15T10:35:31;13.20;64.40
67777;DHT22;54576;52.020;5.536;2023-04-15T10:37:57;13.30;64.20
67777;DHT22;54576;52.020;5.536;2023-04-15T10:40:30;13.50;64.50
67777;DHT22;54576;52.020;5.536;2023-04-15T10:42:58;13.50;64.00
67777;DHT22;54576;52.020;5.536;2023-04-15T10:45:31;13.30;64.10
67777;DHT22;54576;52.020;5.536;2023-04-15T10:47:58;13.30;63.50
67777;DHT22;54576;52.020;5.536;2023-04-15T10:50:26;13.40;65.10
67777;DHT22;54576;52.020;5.536;2023-04-15T10:52:52;13.40;63.80
67777;DHT22;54576;52.020;5.536;2023-04-15T10:55:21;13.40;64.50
67777;DHT22;54576;52.020;5.536;2023-04-15T10:57:51;13.60;64.40
67777;DHT22;54576;52.020;5.536;2023-04-15T11:00:18;13.50;63.40
67777;DHT22;54576;52.020;5.536;2023-04-15T11:02:55;13.60;64.40
67777;DHT22;54576;52.020;5.536;2023-04-15T11:08:10;13.40;62.80
67777;DHT22;54576;52.020;5.536;2023-04-15T11:13:04;13.60;64.70
67777;DHT22;54576;52.020;5.536;2023-04-15T11:15:36;13.80;64.50
67777;DHT22;54576;52.020;5.536;2023-04-15T11:18:19;14.00;64.00
67777;DHT22;54576;52.020;5.536;2023-04-15T11:20:47;14.00;62.50
67777;DHT22;54576;52.020;5.536;2023-04-15T11:23:26;13.90;64.00
67777;DHT22;54576;52.020;5.536;2023-04-15T11:25:54;13.90;63.60
67777;DHT22;54576;52.020;5.536;2023-04-15T11:28:27;13.70;63.80
67777;DHT22;54576;52.020;5.536;2023-04-15T11:30:54;13.80;63.90
67777;DHT22;54576;52.020;5.536;2023-04-15T11:33:20;13.90;64.00
67777;DHT22;54576;52.020;5.536;2023-04-15T11:35:47;14.00;63.50
67777;DHT22;54576;52.020;5.536;2023-04-15T11:38:13;14.10;64.10
67777;DHT22;54576;52.020;5.536;2023-04-15T11:40:40;14.40;96.90
67777;DHT22;54576;52.020;5.536;2023-04-15T11:43:15;14.20;62.20
67777;DHT22;54576;52.020;5.536;2023-04-15T11:45:58;14.00;62.20
67777;DHT22;54576;52.020;5.536;2023-04-15T11:48:32;13.90;61.60
67777;DHT22;54576;52.020;5.536;2023-04-15T11:56:09;14.20;61.20
67777;DHT22;54576;52.020;5.536;2023-04-15T11:58:36;14.20;62.60
67777;DHT22;54576;52.020;5.536;2023-04-15T12:01:03;14.30;62.30
67777;DHT22;54576;52.020;5.536;2023-04-15T12:03:31;14.30;59.20
67777;DHT22;54576;52.020;5.536;2023-04-15T12:06:19;14.30;60.90
67777;DHT22;54576;52.020;5.536;2023-04-15T12:08:57;14.40;61.90
67777;DHT22;54576;52.020;5.536;2023-04-15T12:13:57;14.30;60.10
67777;DHT22;54576;52.020;5.536;2023-04-15T12:16:24;14.20;61.40
67777;DHT22;54576;52.020;5.536;2023-04-15T12:18:51;14.30;62.50
67777;DHT22;54576;52.020;5.536;2023-04-15T12:21:20;14.30;60.90
67777;DHT22;54576;52.020;5.536;2023-04-15T12:23:49;14.10;59.90
67777;DHT22;54576;52.020;5.536;2023-04-15T12:26:16;14.10;61.60
67777;DHT22;54576;52.020;5.536;2023-04-15T12:28:42;14.10;61.40
67777;DHT22;54576;52.020;5.536;2023-04-15T12:31:09;14.10;61.50
67777;DHT22;54576;52.020;5.536;2023-04-15T12:33:35;13.90;60.20
67777;DHT22;54576;52.020;5.536;2023-04-15T12:36:00;13.90;61.80
67777;DHT22;54576;52.020;5.536;2023-04-15T12:38:26;13.90;61.90
67777;DHT22;54576;52.020;5.536;2023-04-15T12:40:52;14.00;62.30
67777;DHT22;54576;52.020;5.536;2023-04-15T12:43:18;13.90;61.10
67777;DHT22;54576;52.020;5.536;2023-04-15T12:45:46;13.80;61.70
67777;DHT22;54576;52.020;5.536;2023-04-15T12:48:12;13.80;62.60
67777;DHT22;54576;52.020;5.536;2023-04-15T12:50:37;13.90;61.60
67777;DHT22;54576;52.020;5.536;2023-04-15T12:53:03;14.00;61.40
67777;DHT22;54576;52.020;5.536;2023-04-15T12:55:29;14.00;61.30
67777;DHT22;54576;52.020;5.536;2023-04-15T12:57:55;13.80;61.00
67777;DHT22;54576;52.020;5.536;2023-04-15T13:00:21;13.80;62.50
67777;DHT22;54576;52.020;5.536;2023-04-15T13:02:47;13.80;62.20
67777;DHT22;54576;52.020;5.536;2023-04-15T13:05:13;13.70;62.40
67777;DHT22;54576;52.020;5.536;2023-04-15T13:07:40;14.00;62.90
67777;DHT22;54576;52.020;5.536;2023-04-15T13:10:06;14.10;62.00
67777;DHT22;54576;52.020;5.536;2023-04-15T13:12:32;14.00;62.10
67777;DHT22;54576;52.020;5.536;2023-04-15T13:15:01;13.90;62.20
67777;DHT22;54576;52.020;5.536;2023-04-15T13:17:26;13.80;62.30
67777;DHT22;54576;52.020;5.536;2023-04-15T13:19:52;13.70;61.70
67777;DHT22;54576;52.020;5.536;2023-04-15T13:22:17;13.80;61.50
67777;DHT22;54576;52.020;5.536;2023-04-15T13:24:43;13.70;60.60
67777;DHT22;54576;52.020;5.536;2023-04-15T13:29:34;13.60;60.80
67777;DHT22;54576;52.020;5.536;2023-04-15T13:32:00;13.80;62.50
67777;DHT22;54576;52.020;5.536;2023-04-15T13:34:25;13.70;62.50
67777;DHT22;54576;52.020;5.536;2023-04-15T13:36:51;13.70;62.40
67777;DHT22;54576;52.020;5.536;2023-04-15T13:39:16;13.70;62.40
67777;DHT22;54576;52.020;5.536;2023-04-15T13:41:42;13.60;62.40
67777;DHT22;54576;52.020;5.536;2023-04-15T13:44:08;13.70;62.40
67777;DHT22;54576;52.020;5.536;2023-04-15T13:46:33;13.60;62.30
67777;DHT22;54576;52.020;5.536;2023-04-15T13:48:59;13.50;62.30
67777;DHT22;54576;52.020;5.536;2023-04-15T13:51:24;13.50;62.60
67777;DHT22;54576;52.020;5.536;2023-04-15T13:53:51;13.40;62.50
67777;DHT22;54576;52.020;5.536;2023-04-15T13:56:16;13.30;63.10
67777;DHT22;54576;52.020;5.536;2023-04-15T13:58:42;13.30;63.70
67777;DHT22;54576;52.020;5.536;2023-04-15T14:01:08;13.30;64.60
67777;DHT22;54576;52.020;5.536;2023-04-15T14:03:34;13.40;64.20
67777;DHT22;54576;52.020;5.536;2023-04-15T14:06:00;13.40;64.30
67777;DHT22;54576;52.020;5.536;2023-04-15T14:08:25;13.30;64.40
67777;DHT22;54576;52.020;5.536;2023-04-15T14:10:51;13.20;64.40
67777;DHT22;54576;52.020;5.536;2023-04-15T14:13:16;13.10;64.20
67777;DHT22;54576;52.020;5.536;2023-04-15T14:15:43;13.10;64.30
67777;DHT22;54576;52.020;5.536;2023-04-15T14:20:35;13.10;63.30
67777;DHT22;54576;52.020;5.536;2023-04-15T14:23:01;13.10;64.00
67777;DHT22;54576;52.020;5.536;2023-04-15T14:25:26;13.10;64.00
67777;DHT22;54576;52.020;5.536;2023-04-15T14:27:55;13.20;64.10
67777;DHT22;54576;52.020;5.536;2023-04-15T14:30:21;13.20;64.20
67777;DHT22;54576;52.020;5.536;2023-04-15T14:32:46;13.10;64.40
67777;DHT22;54576;52.020;5.536;2023-04-15T14:35:12;13.00;64.20
67777;DHT22;54576;52.020;5.536;2023-04-15T14:37:37;12.80;64.40
67777;DHT22;54576;52.020;5.536;2023-04-15T14:40:03;12.80;64.60
67777;DHT22;54576;52.020;5.536;2023-04-15T14:42:28;12.60;64.90
67777;DHT22;54576;52.020;5.536;2023-04-15T14:44:54;12.60;65.10
67777;DHT22;54576;52.020;5.536;2023-04-15T14:47:22;12.50;65.30
67777;DHT22;54576;52.020;5.536;2023-04-15T14:49:48;12.40;65.90
67777;DHT22;54576;52.020;5.536;2023-04-15T14:52:13;12.20;66.50
67777;DHT22;54576;52.020;5.536;2023-04-15T14:54:39;12.20;67.40
67777;DHT22;54576;52.020;5.536;2023-04-15T14:57:04;12.10;67.40
67777;DHT22;54576;52.020;5.536;2023-04-15T14:59:30;11.90;70.30
67777;DHT22;54576;52.020;5.536;2023-04-15T15:01:56;11.90;69.50
67777;DHT22;54576;52.020;5.536;2023-04-15T15:04:21;11.90;69.80
67777;DHT22;54576;52.020;5.536;2023-04-15T15:06:47;11.80;69.90
67777;DHT22;54576;52.020;5.536;2023-04-15T15:09:12;11.70;70.10
67777;DHT22;54576;52.020;5.536;2023-04-15T15:11:38;11.70;69.40
67777;DHT22;54576;52.020;5.536;2023-04-15T15:14:06;11.60;72.20
67777;DHT22;54576;52.020;5.536;2023-04-15T15:16:32;11.60;71.10
67777;DHT22;54576;52.020;5.536;2023-04-15T15:18:57;11.50;71.60
67777;DHT22;54576;52.020;5.536;2023-04-15T15:21:23;11.50;70.40
67777;DHT22;54576;52.020;5.536;2023-04-15T15:23:48;11.40;71.00
67777;DHT22;54576;52.020;5.536;2023-04-15T15:26:14;11.40;70.40
67777;DHT22;54576;52.020;5.536;2023-04-15T15:28:40;11.40;72.90
67777;DHT22;54576;52.020;5.536;2023-04-15T15:31:06;11.40;71.70
67777;DHT22;54576;52.020;5.536;2023-04-15T15:33:32;11.40;71.00
67777;DHT22;54576;52.020;5.536;2023-04-15T15:35:57;11.40;71.30
67777;DHT22;54576;52.020;5.536;2023-04-15T15:38:23;11.50;70.60
67777;DHT22;54576;52.020;5.536;2023-04-15T15:40:49;11.50;72.40
67777;DHT22;54576;52.020;5.536;2023-04-15T15:43:14;11.50;70.90
67777;DHT22;54576;52.020;5.536;2023-04-15T15:45:42;11.50;71.90
67777;DHT22;54576;52.020;5.536;2023-04-15T15:48:08;11.50;73.10
67777;DHT22;54576;52.020;5.536;2023-04-15T15:50:33;11.40;71.60
67777;DHT22;54576;52.020;5.536;2023-04-15T15:52:59;11.30;71.70
67777;DHT22;54576;52.020;5.536;2023-04-15T15:55:25;11.20;73.60
67777;DHT22;54576;52.020;5.536;2023-04-15T15:57:52;11.20;72.00
67777;DHT22;54576;52.020;5.536;2023-04-15T16:00:17;11.10;71.80
67777;DHT22;54576;52.020;5.536;2023-04-15T16:02:43;11.10;71.80
67777;DHT22;54576;52.020;5.536;2023-04-15T16:05:09;11.10;71.50